createdAt,value
2023-05-05T00:01:50.047Z,20.48
2023-05-05T00:04:23.795Z,12.32
2023-05-05T00:06:54.756Z,29.65
2023-05-05T00:09:25.832Z,16.08
2023-05-05T00:11:56.380Z,11.43
2023-05-05T00:14:27.188Z,11.98
2023-05-05T00:16:58.713Z,19.40
2023-05-05T00:19:31.848Z,15.57
2023-05-05T00:22:02.560Z,17.95
2023-05-05T00:24:33.065Z,17.35
2023-05-05T00:27:03.640Z,13.23
2023-05-05T00:29:35.420Z,16.23
2023-05-05T00:32:06.676Z,15.13
2023-05-05T00:34:37.125Z,12.60
2023-05-05T00:37:08.469Z,15.98
2023-05-05T00:39:38.535Z,21.00
2023-05-05T00:42:09.260Z,26.45
2023-05-05T00:44:43.572Z,29.05
2023-05-05T00:47:14.975Z,19.05
2023-05-05T00:49:45.462Z,13.13
2023-05-05T00:52:15.974Z,16.13
2023-05-05T00:54:46.414Z,23.73
2023-05-05T00:57:17.546Z,14.95
2023-05-05T00:59:49.744Z,30.42
2023-05-05T01:02:20.732Z,25.50
2023-05-05T01:04:51.946Z,26.13
2023-05-05T01:07:29.912Z,13.88
2023-05-05T01:10:20.737Z,20.65
2023-05-05T01:13:10.183Z,16.58
2023-05-05T01:16:02.763Z,13.98
2023-05-05T01:18:46.724Z,25.92
2023-05-05T01:21:22.252Z,13.70
2023-05-05T01:24:02.457Z,20.73
2023-05-05T01:26:33.680Z,37.80
2023-05-05T01:29:04.671Z,14.57
2023-05-05T01:31:52.718Z,16.10
2023-05-05T01:34:26.425Z,12.52
2023-05-05T01:37:05.214Z,22.05
2023-05-05T01:39:36.653Z,23.98
2023-05-05T01:42:09.274Z,31.70
2023-05-05T01:44:41.070Z,38.13
2023-05-05T01:47:15.314Z,20.13
2023-05-05T01:49:48.080Z,23.35
2023-05-05T01:52:23.283Z,19.88
2023-05-05T01:54:55.053Z,26.15
2023-05-05T01:57:26.506Z,24.17
2023-05-05T01:59:57.567Z,19.95
2023-05-05T02:02:29.549Z,23.80
2023-05-05T02:05:02.009Z,14.77
2023-05-05T02:07:35.517Z,15.60
2023-05-05T02:10:09.550Z,18.25
2023-05-05T02:12:41.667Z,13.85
2023-05-05T02:15:14.975Z,14.77
2023-05-05T02:17:49.329Z,19.42
2023-05-05T02:20:20.854Z,17.23
2023-05-05T02:22:51.758Z,16.67
2023-05-05T02:25:23.226Z,13.73
2023-05-05T02:27:55.769Z,17.45
2023-05-05T02:30:29.495Z,20.13
2023-05-05T02:33:08.467Z,31.17
2023-05-05T02:35:42.860Z,11.77
2023-05-05T02:38:21.218Z,14.68
2023-05-05T02:40:54.522Z,21.60
2023-05-05T02:43:26.780Z,22.85
2023-05-05T02:45:57.271Z,26.45
2023-05-05T02:48:27.577Z,12.68
2023-05-05T02:50:59.615Z,19.92
2023-05-05T02:53:36.761Z,12.98
2023-05-05T02:56:26.347Z,11.38
2023-05-05T02:59:12.473Z,22.25
2023-05-05T03:02:03.585Z,12.38
2023-05-05T03:04:39.656Z,22.90
2023-05-05T03:07:23.013Z,21.25
2023-05-05T03:10:06.183Z,14.30
2023-05-05T03:12:48.702Z,20.88
2023-05-05T03:15:28.344Z,11.85
2023-05-05T03:18:00.852Z,12.73
2023-05-05T03:20:32.522Z,9.57
2023-05-05T03:23:11.091Z,10.02
2023-05-05T03:25:45.906Z,11.82
2023-05-05T03:28:36.196Z,9.50
2023-05-05T03:31:15.136Z,17.45
2023-05-05T03:33:46.644Z,40.75
2023-05-05T03:36:18.168Z,14.25
2023-05-05T03:38:49.429Z,11.75
2023-05-05T03:41:26.004Z,8.00
2023-05-05T03:43:56.642Z,6.05
2023-05-05T03:46:27.558Z,9.70
2023-05-05T03:49:00.952Z,20.08
2023-05-05T03:51:33.035Z,9.75
2023-05-05T03:54:04.881Z,18.73
2023-05-05T03:56:36.643Z,18.92
2023-05-05T03:59:07.873Z,15.75
2023-05-05T04:01:38.683Z,15.80
2023-05-05T04:04:10.403Z,13.48
2023-05-05T04:06:41.187Z,10.98
2023-05-05T04:09:13.379Z,16.52
2023-05-05T04:11:45.382Z,15.88
2023-05-05T04:14:15.855Z,14.23
2023-05-05T04:16:47.349Z,13.57
2023-05-05T04:19:18.718Z,12.50
2023-05-05T04:21:50.555Z,9.05
2023-05-05T04:24:25.903Z,16.20
2023-05-05T04:26:57.708Z,12.25
2023-05-05T04:29:28.242Z,12.82
2023-05-05T04:31:58.719Z,17.23
2023-05-05T04:34:29.720Z,10.05
2023-05-05T04:37:00.210Z,10.75
2023-05-05T04:39:31.423Z,12.07
2023-05-05T04:42:01.756Z,9.05
2023-05-05T04:44:32.401Z,9.88
2023-05-05T04:47:02.700Z,10.38
2023-05-05T04:49:34.163Z,8.68
2023-05-05T04:52:05.243Z,12.40
2023-05-05T04:54:38.879Z,12.65
2023-05-05T04:57:12.121Z,10.30
2023-05-05T04:59:43.514Z,10.15
2023-05-05T05:02:14.108Z,10.10
2023-05-05T05:04:45.246Z,10.68
2023-05-05T05:07:18.420Z,9.15
2023-05-05T05:09:48.990Z,11.85
2023-05-05T05:12:20.295Z,9.15
2023-05-05T05:14:51.220Z,8.63
2023-05-05T05:17:23.640Z,14.98
2023-05-05T05:19:56.565Z,9.27
2023-05-05T05:22:27.973Z,8.48
2023-05-05T05:24:59.246Z,8.38
2023-05-05T05:27:30.218Z,10.35
2023-05-05T05:30:00.864Z,14.82
2023-05-05T05:32:33.757Z,18.88
2023-05-05T05:35:04.772Z,7.78
2023-05-05T05:37:36.770Z,5.60
2023-05-05T05:40:08.421Z,8.57
2023-05-05T05:42:41.318Z,10.52
2023-05-05T05:45:12.198Z,7.07
2023-05-05T05:47:43.308Z,23.73
2023-05-05T05:50:14.663Z,9.30
2023-05-05T05:52:46.250Z,7.80
2023-05-05T05:55:17.328Z,17.85
2023-05-05T05:57:48.505Z,14.45
2023-05-05T06:00:19.817Z,9.38
2023-05-05T06:02:57.331Z,14.38
2023-05-05T06:05:32.715Z,10.55
2023-05-05T06:08:06.027Z,15.80
2023-05-05T06:10:41.747Z,12.95
2023-05-05T06:13:17.437Z,10.88
2023-05-05T06:15:52.269Z,17.58
2023-05-05T06:18:23.332Z,13.45
2023-05-05T06:20:54.812Z,11.02
2023-05-05T06:23:29.330Z,13.40
2023-05-05T06:26:04.951Z,6.10
2023-05-05T06:28:37.980Z,17.33
2023-05-05T06:31:08.402Z,15.15
2023-05-05T06:33:38.806Z,12.88
2023-05-05T06:36:09.831Z,16.88
2023-05-05T06:38:40.728Z,16.25
2023-05-05T06:41:10.774Z,12.43
2023-05-05T06:43:41.239Z,15.23
2023-05-05T06:46:14.742Z,8.40
2023-05-05T06:48:44.870Z,11.65
2023-05-05T06:51:16.504Z,6.70
2023-05-05T06:53:47.104Z,9.82
2023-05-05T06:56:18.286Z,11.90
2023-05-05T06:58:49.054Z,19.52
2023-05-05T07:01:20.428Z,14.00
2023-05-05T07:03:52.439Z,9.85
2023-05-05T07:06:23.398Z,7.40
2023-05-05T07:08:54.825Z,13.80
2023-05-05T07:11:25.452Z,11.32
2023-05-05T07:13:56.786Z,8.80
2023-05-05T07:16:28.508Z,12.00
2023-05-05T07:19:02.095Z,12.23
2023-05-05T07:21:32.888Z,18.73
2023-05-05T07:24:05.010Z,17.15
2023-05-05T07:26:35.804Z,12.25
2023-05-05T07:29:08.454Z,11.23
2023-05-05T07:31:39.163Z,13.07
2023-05-05T07:34:09.366Z,14.27
2023-05-05T07:36:39.963Z,17.10
2023-05-05T07:39:09.868Z,18.73
2023-05-05T07:41:40.175Z,17.10
2023-05-05T07:44:10.418Z,17.15
2023-05-05T07:46:40.661Z,16.13
2023-05-05T07:49:10.907Z,15.18
2023-05-05T07:51:44.904Z,16.13
2023-05-05T07:54:15.016Z,48.03
2023-05-05T07:56:45.403Z,29.40
2023-05-05T07:59:15.341Z,32.70
2023-05-05T08:01:45.873Z,18.75
2023-05-05T08:04:16.165Z,18.73
2023-05-05T08:06:46.384Z,17.60
2023-05-05T08:09:17.410Z,18.20
2023-05-05T08:11:47.886Z,17.27
2023-05-05T08:14:18.286Z,14.40
2023-05-05T08:16:48.890Z,17.10
2023-05-05T08:19:28.770Z,17.63
2023-05-05T08:22:01.508Z,22.58
2023-05-05T08:24:31.902Z,20.52
2023-05-05T08:27:03.921Z,23.48
2023-05-05T08:29:34.882Z,23.25
2023-05-05T08:32:05.902Z,19.63
2023-05-05T08:34:36.554Z,25.85
2023-05-05T08:37:09.484Z,22.42
2023-05-05T08:39:39.940Z,32.33
2023-05-05T08:42:10.423Z,19.38
2023-05-05T08:44:40.836Z,15.65
2023-05-05T08:47:15.952Z,22.35
2023-05-05T08:49:47.844Z,19.00
2023-05-05T08:52:24.765Z,30.58
2023-05-05T08:55:08.232Z,28.67
2023-05-05T08:57:45.706Z,29.60
2023-05-05T09:00:16.542Z,23.45
2023-05-05T09:02:48.605Z,28.83
2023-05-05T09:05:20.494Z,26.25
2023-05-05T09:07:51.909Z,23.00
2023-05-05T09:10:23.035Z,29.02
2023-05-05T09:12:53.492Z,19.45
2023-05-05T09:15:24.207Z,14.55
2023-05-05T09:17:54.970Z,28.95
2023-05-05T09:20:25.845Z,17.98
2023-05-05T09:22:55.934Z,34.40
2023-05-05T09:25:26.508Z,27.90
2023-05-05T09:27:57.517Z,17.20
2023-05-05T09:30:29.510Z,17.95
2023-05-05T09:33:04.700Z,18.85
2023-05-05T09:35:54.408Z,19.50
2023-05-05T09:38:26.215Z,25.75
2023-05-05T09:41:03.079Z,18.77
2023-05-05T09:43:52.271Z,24.92
2023-05-05T09:46:23.064Z,22.25
2023-05-05T09:48:54.817Z,30.08
2023-05-05T09:51:33.360Z,20.67
2023-05-05T09:54:05.023Z,22.23
2023-05-05T09:56:44.915Z,16.85
2023-05-05T09:59:15.478Z,18.67
2023-05-05T10:01:46.064Z,21.60
2023-05-05T10:04:30.126Z,20.70
2023-05-05T10:07:00.562Z,17.15
2023-05-05T10:09:32.974Z,15.68
2023-05-05T10:12:04.994Z,27.40
2023-05-05T10:14:35.667Z,18.15
2023-05-05T10:17:07.540Z,20.50
2023-05-05T10:19:38.856Z,18.08
2023-05-05T10:22:11.566Z,22.02
2023-05-05T10:24:44.798Z,24.83
2023-05-05T10:27:23.042Z,29.67
2023-05-05T10:29:57.633Z,26.00
2023-05-05T10:32:56.410Z,17.75
2023-05-05T10:35:29.251Z,36.78
2023-05-05T10:38:01.612Z,26.83
2023-05-05T10:40:33.416Z,23.75
2023-05-05T10:43:04.152Z,18.55
2023-05-05T10:45:34.664Z,14.35
2023-05-05T10:48:08.956Z,20.15
2023-05-05T10:50:57.999Z,12.73
2023-05-05T10:53:34.812Z,18.23
2023-05-05T10:56:10.806Z,17.65
2023-05-05T10:59:01.210Z,13.00
2023-05-05T11:01:51.727Z,19.75
2023-05-05T11:04:23.114Z,18.92
2023-05-05T11:07:14.985Z,27.33
2023-05-05T11:10:05.051Z,26.65
2023-05-05T11:13:04.663Z,20.92
2023-05-05T11:15:38.608Z,15.95
2023-05-05T11:18:09.041Z,14.35
2023-05-05T11:20:59.589Z,19.83
2023-05-05T11:23:30.157Z,14.30
2023-05-05T11:26:01.146Z,18.25
2023-05-05T11:28:32.684Z,26.48
2023-05-05T11:31:07.180Z,18.38
2023-05-05T11:33:41.177Z,21.38
2023-05-05T11:36:19.116Z,27.13
2023-05-05T11:39:06.121Z,26.33
2023-05-05T11:41:54.555Z,36.45
2023-05-05T11:44:35.140Z,32.13
2023-05-05T11:47:08.284Z,30.15
2023-05-05T11:49:41.812Z,30.10
2023-05-05T11:52:15.395Z,38.53
2023-05-05T11:54:51.636Z,26.15
2023-05-05T11:57:28.775Z,29.33
2023-05-05T12:00:17.224Z,18.58
2023-05-05T12:02:48.186Z,22.67
2023-05-05T12:05:22.427Z,32.58
2023-05-05T12:07:58.726Z,34.35
2023-05-05T12:10:29.583Z,24.50
2023-05-05T12:13:02.190Z,22.98
2023-05-05T12:15:34.318Z,24.70
2023-05-05T12:18:07.209Z,16.45
2023-05-05T12:20:37.836Z,23.92
2023-05-05T12:23:09.471Z,22.15
2023-05-05T12:25:40.652Z,22.65
2023-05-05T12:28:12.168Z,18.95
2023-05-05T12:30:42.515Z,15.65
2023-05-05T12:33:13.103Z,17.63
2023-05-05T12:35:43.934Z,18.55
2023-05-05T12:38:15.488Z,13.30
2023-05-05T12:40:50.208Z,20.73
2023-05-05T12:43:27.629Z,12.73
2023-05-05T12:46:16.654Z,13.82
2023-05-05T12:49:06.700Z,15.80
2023-05-05T12:51:38.146Z,15.00
2023-05-05T12:54:09.759Z,18.58
2023-05-05T12:56:39.849Z,17.55
2023-05-05T12:59:33.622Z,15.75
2023-05-05T13:02:04.188Z,20.48
2023-05-05T13:04:34.664Z,19.48
2023-05-05T13:07:16.603Z,28.58
2023-05-05T13:09:48.684Z,13.35
2023-05-05T13:12:23.232Z,19.40
2023-05-05T13:14:55.218Z,19.52
2023-05-05T13:17:25.755Z,15.50
2023-05-05T13:19:55.833Z,17.33
2023-05-05T13:22:25.664Z,21.88
2023-05-05T13:24:57.430Z,21.88
2023-05-05T13:27:28.505Z,22.73
2023-05-05T13:30:02.935Z,18.67
2023-05-05T13:32:34.425Z,13.82
2023-05-05T13:35:29.154Z,20.92
2023-05-05T13:37:59.239Z,54.83
2023-05-05T13:40:29.214Z,25.98
2023-05-05T13:43:00.191Z,17.15
2023-05-05T13:45:31.230Z,19.92
2023-05-05T13:48:02.160Z,12.00
2023-05-05T13:50:33.233Z,21.17
2023-05-05T13:53:15.547Z,12.27
2023-05-05T13:55:47.178Z,24.65
2023-05-05T13:58:17.720Z,17.08
2023-05-05T14:00:47.921Z,32.25
2023-05-05T14:03:18.032Z,27.88
2023-05-05T14:05:48.255Z,24.83
2023-05-05T14:08:21.745Z,28.55
2023-05-05T14:10:52.580Z,36.22
2023-05-05T14:13:24.238Z,32.58
2023-05-05T14:15:59.687Z,24.27
2023-05-05T14:18:30.760Z,16.67
2023-05-05T14:21:00.724Z,17.35
2023-05-05T14:23:31.462Z,13.90
2023-05-05T14:26:02.514Z,14.40
2023-05-05T14:28:32.791Z,15.48
2023-05-05T14:31:03.429Z,13.77
2023-05-05T14:33:33.846Z,17.15
2023-05-05T14:36:22.220Z,17.30
2023-05-05T14:38:53.319Z,21.85
2023-05-05T14:41:24.042Z,15.57
2023-05-05T14:44:00.763Z,15.68
2023-05-05T14:46:35.348Z,16.95
2023-05-05T14:49:05.785Z,28.38
2023-05-05T14:51:35.653Z,23.73
2023-05-05T14:54:11.710Z,24.63
2023-05-05T14:56:47.749Z,17.60
2023-05-05T14:59:18.197Z,21.92
2023-05-05T15:01:49.304Z,17.30
2023-05-05T15:04:19.805Z,23.05
2023-05-05T15:06:50.337Z,22.65
2023-05-05T15:09:21.554Z,14.63
2023-05-05T15:11:52.329Z,17.65
2023-05-05T15:14:22.857Z,18.25
2023-05-05T15:16:53.823Z,20.98
2023-05-05T15:19:26.737Z,39.65
2023-05-05T15:21:57.569Z,19.92
2023-05-05T15:24:28.903Z,27.58
2023-05-05T15:26:59.752Z,19.08
2023-05-05T15:29:30.358Z,28.20
2023-05-05T15:32:00.888Z,22.92
2023-05-05T15:34:31.555Z,20.23
2023-05-05T15:37:02.329Z,21.42
2023-05-05T15:39:32.854Z,23.02
2023-05-05T15:42:06.333Z,39.78
2023-05-05T15:44:36.660Z,21.73
2023-05-05T15:47:08.000Z,16.40
2023-05-05T15:49:38.814Z,19.30
2023-05-05T15:52:09.360Z,20.83
2023-05-05T15:54:39.343Z,12.98
2023-05-05T15:57:09.627Z,14.55
2023-05-05T15:59:39.782Z,15.90
2023-05-05T16:02:10.377Z,16.63
2023-05-05T16:04:40.838Z,16.58
2023-05-05T16:07:12.808Z,14.95
2023-05-05T16:09:43.384Z,12.15
2023-05-05T16:12:14.092Z,18.50
2023-05-05T16:14:44.867Z,21.67
2023-05-05T16:17:15.838Z,9.93
2023-05-05T16:19:46.332Z,8.90
2023-05-05T16:22:17.290Z,15.07
2023-05-05T16:24:48.372Z,11.63
2023-05-05T16:27:18.885Z,11.02
2023-05-05T16:29:49.819Z,9.68
2023-05-05T16:32:20.411Z,10.25
2023-05-05T16:34:50.383Z,8.02
2023-05-05T16:37:20.415Z,11.02
2023-05-05T16:39:50.672Z,12.07
2023-05-05T16:42:21.534Z,9.00
2023-05-05T16:44:52.828Z,11.13
2023-05-05T16:47:23.413Z,10.05
2023-05-05T16:49:53.913Z,11.07
2023-05-05T16:52:24.129Z,10.77
2023-05-05T16:54:56.777Z,10.68
2023-05-05T16:57:27.146Z,10.25
2023-05-05T16:59:58.017Z,11.35
2023-05-05T17:02:28.332Z,7.75
2023-05-05T17:05:00.916Z,7.47
2023-05-05T17:07:31.335Z,7.65
2023-05-05T17:10:02.370Z,11.82
2023-05-05T17:12:32.465Z,11.70
2023-05-05T17:15:02.456Z,10.63
2023-05-05T17:17:33.490Z,14.07
2023-05-05T17:20:06.473Z,9.40
2023-05-05T17:22:37.416Z,12.20
2023-05-05T17:25:08.628Z,9.48
2023-05-05T17:27:39.901Z,8.25
2023-05-05T17:30:10.452Z,7.75
2023-05-05T17:32:40.974Z,13.15
2023-05-05T17:35:11.935Z,9.30
2023-05-05T17:37:42.213Z,7.43
2023-05-05T17:40:12.697Z,8.20
2023-05-05T17:42:42.952Z,18.27
2023-05-05T17:45:13.382Z,12.10
2023-05-05T17:47:44.040Z,11.82
2023-05-05T17:50:14.804Z,10.43
2023-05-05T17:52:46.211Z,8.95
2023-05-05T17:55:16.486Z,7.90
2023-05-05T17:57:46.490Z,10.18
2023-05-05T18:00:16.977Z,8.85
2023-05-05T18:02:47.107Z,10.65
2023-05-05T18:05:17.451Z,8.18
2023-05-05T18:07:47.913Z,13.75
2023-05-05T18:10:17.911Z,13.60
2023-05-05T18:12:48.707Z,13.38
2023-05-05T18:15:19.429Z,11.52
2023-05-05T18:17:49.931Z,13.23
2023-05-05T18:20:20.705Z,11.40
2023-05-05T18:22:50.998Z,10.38
2023-05-05T18:25:21.857Z,10.70
2023-05-05T18:27:52.475Z,10.05
2023-05-05T18:30:22.992Z,8.10
2023-05-05T18:32:53.009Z,8.68
2023-05-05T18:35:23.716Z,9.50
2023-05-05T18:37:56.262Z,11.27
2023-05-05T18:40:26.545Z,9.82
2023-05-05T18:42:57.003Z,9.00
2023-05-05T18:45:27.525Z,9.23
2023-05-05T18:47:58.114Z,9.32
2023-05-05T18:50:31.061Z,10.02
2023-05-05T18:53:01.555Z,11.38
2023-05-05T18:55:31.487Z,11.30
2023-05-05T18:58:02.615Z,11.85
2023-05-05T19:00:33.144Z,11.27
2023-05-05T19:03:03.775Z,14.40
2023-05-05T19:05:34.059Z,13.02
2023-05-05T19:08:06.950Z,9.80
2023-05-05T19:10:37.057Z,13.93
2023-05-05T19:13:07.198Z,14.73
2023-05-05T19:15:38.020Z,11.48
2023-05-05T19:18:08.085Z,13.13
2023-05-05T19:20:39.672Z,12.77
2023-05-05T19:23:10.465Z,17.55
2023-05-05T19:25:41.278Z,12.68
2023-05-05T19:28:12.406Z,9.63
2023-05-05T19:30:42.723Z,12.20
2023-05-05T19:33:13.022Z,12.32
2023-05-05T19:35:44.199Z,12.55
2023-05-05T19:38:14.808Z,9.00
2023-05-05T19:40:45.080Z,12.18
2023-05-05T19:43:15.087Z,8.60
2023-05-05T19:45:45.553Z,12.68
2023-05-05T19:48:16.040Z,9.10
2023-05-05T19:50:48.632Z,9.40
2023-05-05T19:53:19.138Z,9.57
2023-05-05T19:55:49.910Z,8.95
2023-05-05T19:58:20.590Z,9.45
2023-05-05T20:00:50.581Z,8.55
2023-05-05T20:03:25.155Z,8.23
2023-05-05T20:05:55.557Z,6.15
2023-05-05T20:08:26.601Z,5.35
2023-05-05T20:10:56.731Z,6.43
2023-05-05T20:13:27.076Z,4.35
2023-05-05T20:15:57.624Z,8.30
2023-05-05T20:18:27.848Z,6.68
2023-05-05T20:21:00.134Z,7.90
2023-05-05T20:23:30.529Z,6.85
2023-05-05T20:26:00.658Z,5.80
2023-05-05T20:28:32.676Z,5.65
2023-05-05T20:31:03.093Z,4.50
2023-05-05T20:33:34.264Z,5.43
2023-05-05T20:36:05.978Z,6.78
2023-05-05T20:38:36.663Z,8.18
2023-05-05T20:41:07.211Z,9.18
2023-05-05T20:43:39.063Z,8.88
2023-05-05T20:46:13.102Z,12.15
2023-05-05T20:48:43.691Z,5.80
2023-05-05T20:51:14.599Z,7.57
2023-05-05T20:53:45.189Z,8.20
2023-05-05T20:56:15.131Z,8.05
2023-05-05T20:58:45.867Z,8.80
2023-05-05T21:01:16.624Z,8.55
2023-05-05T21:03:47.117Z,8.57
2023-05-05T21:06:20.637Z,12.80
2023-05-05T21:08:50.667Z,13.57
2023-05-05T21:11:21.172Z,7.82
2023-05-05T21:13:51.831Z,11.82
2023-05-05T21:16:22.102Z,13.68
2023-05-05T21:18:52.162Z,24.70
2023-05-05T21:21:22.848Z,11.27
2023-05-05T21:23:56.585Z,12.27
2023-05-05T21:26:26.666Z,13.90
2023-05-05T21:28:56.964Z,16.58
2023-05-05T21:31:28.221Z,10.77
2023-05-05T21:33:58.910Z,9.77
2023-05-05T21:36:29.099Z,9.35
2023-05-05T21:39:00.441Z,10.38
2023-05-05T21:41:31.119Z,12.27
2023-05-05T21:44:01.182Z,9.38
2023-05-05T21:46:31.665Z,10.65
2023-05-05T21:49:02.406Z,11.70
2023-05-05T21:51:33.220Z,12.57
2023-05-05T21:54:03.696Z,9.82
2023-05-05T21:56:34.699Z,12.00
2023-05-05T21:59:06.429Z,10.68
2023-05-05T22:01:36.704Z,13.63
2023-05-05T22:04:06.786Z,11.65
2023-05-05T22:06:47.212Z,10.45
2023-05-05T22:09:17.376Z,12.48
2023-05-05T22:11:47.684Z,12.75
2023-05-05T22:14:19.708Z,10.80
2023-05-05T22:16:49.720Z,7.60
2023-05-05T22:19:19.980Z,10.10
2023-05-05T22:21:50.258Z,6.65
2023-05-05T22:24:21.447Z,10.48
2023-05-05T22:26:52.162Z,19.98
2023-05-05T22:29:22.957Z,8.38
2023-05-05T22:31:53.823Z,8.57
2023-05-05T22:34:25.251Z,13.98
2023-05-05T22:36:56.689Z,12.35
2023-05-05T22:39:30.051Z,8.45
2023-05-05T22:42:01.220Z,12.52
2023-05-05T22:44:31.743Z,12.23
2023-05-05T22:47:02.739Z,18.45
2023-05-05T22:49:33.717Z,17.35
2023-05-05T22:52:04.712Z,9.43
2023-05-05T22:54:34.757Z,13.90
2023-05-05T22:57:05.161Z,14.77
2023-05-05T22:59:36.341Z,10.55
2023-05-05T23:02:07.683Z,14.13
2023-05-05T23:04:37.793Z,8.90
2023-05-05T23:07:07.917Z,11.43
2023-05-05T23:09:38.722Z,8.65
2023-05-05T23:12:09.677Z,11.75
2023-05-05T23:14:40.338Z,8.77
2023-05-05T23:17:14.220Z,9.43
2023-05-05T23:19:44.745Z,11.25
2023-05-05T23:22:14.969Z,11.05
2023-05-05T23:24:45.792Z,10.45
2023-05-05T23:27:15.696Z,12.27
2023-05-05T23:29:46.359Z,13.82
2023-05-05T23:32:17.367Z,9.82
2023-05-05T23:34:48.536Z,14.95
2023-05-05T23:37:18.780Z,10.57
2023-05-05T23:39:48.892Z,10.88
2023-05-05T23:42:22.253Z,11.65
2023-05-05T23:44:52.797Z,13.15
2023-05-05T23:47:23.321Z,10.27
2023-05-05T23:49:53.782Z,12.98
2023-05-05T23:52:23.907Z,16.05
2023-05-05T23:54:53.750Z,10.25
2023-05-05T23:57:24.188Z,12.23
